createdAt,value
2023-03-17T00:01:50.890Z,10.30
2023-03-17T00:04:19.357Z,10.30
2023-03-17T00:06:46.468Z,10.40
2023-03-17T00:09:17.643Z,10.20
2023-03-17T00:11:45.512Z,10.10
2023-03-17T00:14:12.267Z,10.00
2023-03-17T00:16:44.879Z,10.20
2023-03-17T00:19:31.177Z,10.20
2023-03-17T00:21:59.828Z,10.30
2023-03-17T00:24:27.237Z,10.10
2023-03-17T00:26:54.020Z,10.20
2023-03-17T00:29:20.651Z,10.10
2023-03-17T00:31:47.219Z,10.00
2023-03-17T00:34:18.225Z,10.10
2023-03-17T00:36:48.320Z,10.30
2023-03-17T00:41:43.476Z,10.10
2023-03-17T00:44:10.252Z,10.10
2023-03-17T00:46:38.253Z,10.10
2023-03-17T00:49:23.403Z,10.00
2023-03-17T00:51:50.754Z,10.10
2023-03-17T00:54:19.360Z,10.10
2023-03-17T00:56:46.643Z,10.10
2023-03-17T00:59:27.305Z,10.20
2023-03-17T01:01:54.475Z,10.00
2023-03-17T01:04:21.273Z,10.10
2023-03-17T01:06:49.271Z,10.00
2023-03-17T01:09:18.411Z,10.10
2023-03-17T01:11:45.921Z,10.00
2023-03-17T01:14:13.564Z,10.10
2023-03-17T01:16:40.701Z,10.10
2023-03-17T01:19:07.622Z,10.20
2023-03-17T01:21:34.507Z,10.00
2023-03-17T01:24:01.475Z,10.00
2023-03-17T01:26:28.628Z,10.10
2023-03-17T01:28:55.352Z,10.00
2023-03-17T01:31:23.376Z,10.00
2023-03-17T01:33:51.232Z,9.90
2023-03-17T01:36:17.900Z,9.90
2023-03-17T01:38:45.458Z,10.00
2023-03-17T01:41:12.533Z,10.10
2023-03-17T01:43:39.182Z,10.10
2023-03-17T01:46:25.695Z,10.10
2023-03-17T01:49:17.276Z,10.10
2023-03-17T01:51:50.445Z,10.00
2023-03-17T01:54:44.754Z,10.00
2023-03-17T01:57:30.061Z,10.00
2023-03-17T01:59:59.692Z,10.00
2023-03-17T02:02:31.645Z,10.00
2023-03-17T02:04:58.913Z,10.00
2023-03-17T02:07:26.659Z,9.90
2023-03-17T02:09:54.986Z,10.00
2023-03-17T02:12:30.968Z,9.90
2023-03-17T02:14:58.388Z,9.80
2023-03-17T02:17:27.277Z,9.90
2023-03-17T02:19:54.570Z,10.00
2023-03-17T02:22:21.389Z,9.70
2023-03-17T02:24:59.345Z,9.70
2023-03-17T02:27:36.802Z,9.50
2023-03-17T02:30:06.301Z,9.50
2023-03-17T02:32:36.321Z,9.50
2023-03-17T02:35:03.664Z,9.60
2023-03-17T02:37:30.254Z,9.50
2023-03-17T02:39:57.054Z,9.60
2023-03-17T02:42:23.678Z,9.50
2023-03-17T02:44:50.533Z,9.50
2023-03-17T02:47:17.271Z,9.40
2023-03-17T02:49:44.542Z,9.50
2023-03-17T02:52:11.969Z,9.40
2023-03-17T02:54:38.942Z,9.40
2023-03-17T02:57:07.449Z,9.50
2023-03-17T02:59:34.788Z,9.50
2023-03-17T03:02:01.684Z,9.60
2023-03-17T03:04:28.394Z,9.40
2023-03-17T03:06:55.046Z,9.50
2023-03-17T03:09:21.629Z,9.30
2023-03-17T03:11:48.275Z,9.50
2023-03-17T03:14:15.058Z,9.40
2023-03-17T03:16:41.737Z,9.20
2023-03-17T03:19:08.897Z,9.50
2023-03-17T03:21:36.590Z,9.50
2023-03-17T03:24:03.976Z,9.50
2023-03-17T03:26:30.998Z,9.30
2023-03-17T03:28:58.318Z,9.30
2023-03-17T03:31:26.019Z,9.30
2023-03-17T03:33:53.050Z,9.20
2023-03-17T03:36:20.273Z,9.30
2023-03-17T03:38:46.877Z,9.30
2023-03-17T03:41:14.056Z,9.10
2023-03-17T03:43:41.236Z,9.10
2023-03-17T03:46:07.911Z,9.00
2023-03-17T03:48:34.819Z,8.90
2023-03-17T03:51:02.975Z,9.10
2023-03-17T03:53:30.109Z,9.20
2023-03-17T03:55:56.852Z,9.20
2023-03-17T03:58:23.443Z,9.20
2023-03-17T04:00:50.313Z,9.20
2023-03-17T04:03:17.010Z,9.30
2023-03-17T04:05:43.856Z,9.30
2023-03-17T04:08:11.290Z,9.20
2023-03-17T04:10:38.030Z,9.00
2023-03-17T04:13:04.658Z,8.90
2023-03-17T04:15:31.423Z,8.80
2023-03-17T04:17:58.134Z,8.90
2023-03-17T04:20:24.748Z,9.00
2023-03-17T04:22:51.735Z,9.10
2023-03-17T04:25:18.543Z,9.10
2023-03-17T04:27:45.152Z,9.20
2023-03-17T04:30:16.770Z,9.10
2023-03-17T04:32:44.363Z,9.20
2023-03-17T04:35:17.850Z,9.20
2023-03-17T04:37:44.838Z,9.10
2023-03-17T04:40:13.183Z,9.10
2023-03-17T04:42:40.441Z,9.20
2023-03-17T04:45:11.143Z,9.00
2023-03-17T04:47:37.834Z,9.20
2023-03-17T04:50:05.237Z,9.30
2023-03-17T04:52:31.893Z,9.10
2023-03-17T04:54:58.601Z,9.00
2023-03-17T04:57:25.436Z,8.90
2023-03-17T04:59:52.333Z,9.10
2023-03-17T05:02:19.152Z,8.90
2023-03-17T05:04:46.325Z,9.00
2023-03-17T05:07:13.311Z,9.00
2023-03-17T05:09:39.959Z,8.80
2023-03-17T05:12:08.496Z,9.00
2023-03-17T05:14:35.416Z,9.00
2023-03-17T05:17:02.143Z,9.00
2023-03-17T05:19:28.753Z,8.90
2023-03-17T05:21:56.041Z,9.00
2023-03-17T05:24:22.618Z,9.00
2023-03-17T05:26:49.206Z,8.90
2023-03-17T05:29:15.976Z,8.90
2023-03-17T05:31:43.223Z,8.80
2023-03-17T05:34:09.909Z,8.80
2023-03-17T05:36:37.404Z,8.60
2023-03-17T05:39:04.205Z,8.50
2023-03-17T05:41:31.554Z,8.40
2023-03-17T05:43:58.164Z,8.40
2023-03-17T05:46:24.845Z,8.60
2023-03-17T05:48:51.960Z,8.50
2023-03-17T05:51:18.904Z,8.70
2023-03-17T05:53:45.778Z,8.60
2023-03-17T05:56:13.255Z,8.70
2023-03-17T05:58:39.893Z,8.50
2023-03-17T06:01:06.546Z,8.60
2023-03-17T06:03:33.488Z,8.70
2023-03-17T06:06:00.564Z,8.70
2023-03-17T06:08:27.169Z,8.60
2023-03-17T06:10:53.783Z,8.80
2023-03-17T06:13:20.652Z,8.60
2023-03-17T06:15:49.431Z,8.50
2023-03-17T06:18:16.030Z,8.60
2023-03-17T06:20:42.795Z,8.60
2023-03-17T06:23:09.605Z,8.50
2023-03-17T06:25:36.902Z,8.50
2023-03-17T06:28:05.410Z,8.50
2023-03-17T06:30:34.551Z,8.70
2023-03-17T06:33:02.205Z,8.80
2023-03-17T06:35:30.199Z,8.80
2023-03-17T06:37:57.860Z,8.70
2023-03-17T06:40:24.510Z,8.80
2023-03-17T06:42:51.120Z,8.80
2023-03-17T06:45:18.079Z,8.80
2023-03-17T06:47:44.721Z,8.90
2023-03-17T06:50:12.122Z,8.90
2023-03-17T06:52:39.881Z,9.00
2023-03-17T06:55:07.145Z,9.00
2023-03-17T06:57:33.911Z,8.90
2023-03-17T07:00:00.661Z,9.00
2023-03-17T07:02:27.347Z,8.90
2023-03-17T07:04:54.103Z,9.00
2023-03-17T07:07:21.030Z,9.10
2023-03-17T07:09:47.933Z,9.20
2023-03-17T07:12:14.884Z,9.20
2023-03-17T07:14:41.626Z,9.20
2023-03-17T07:17:13.526Z,9.30
2023-03-17T07:19:40.982Z,9.40
2023-03-17T07:22:09.668Z,9.50
2023-03-17T07:24:36.336Z,9.40
2023-03-17T07:27:04.252Z,9.50
2023-03-17T07:29:32.359Z,9.50
2023-03-17T07:31:59.110Z,9.70
2023-03-17T07:34:26.003Z,9.70
2023-03-17T07:36:52.603Z,9.70
2023-03-17T07:39:19.224Z,9.70
2023-03-17T07:41:48.260Z,9.70
2023-03-17T07:44:15.372Z,9.80
2023-03-17T07:46:42.513Z,9.70
2023-03-17T07:49:09.187Z,9.90
2023-03-17T07:51:36.285Z,9.90
2023-03-17T07:54:05.787Z,9.90
2023-03-17T07:56:33.107Z,9.70
2023-03-17T07:58:59.896Z,9.80
2023-03-17T08:01:27.624Z,9.80
2023-03-17T08:03:54.935Z,9.80
2023-03-17T08:06:21.979Z,10.10
2023-03-17T08:08:48.805Z,10.00
2023-03-17T08:11:15.693Z,10.10
2023-03-17T08:13:42.362Z,10.00
2023-03-17T08:16:09.517Z,10.00
2023-03-17T08:18:36.800Z,10.20
2023-03-17T08:21:03.976Z,10.10
2023-03-17T08:23:31.049Z,10.20
2023-03-17T08:26:03.109Z,10.20
2023-03-17T08:28:31.318Z,10.20
2023-03-17T08:31:13.314Z,10.30
2023-03-17T08:33:42.085Z,10.30
2023-03-17T08:36:10.814Z,10.40
2023-03-17T08:38:38.101Z,10.30
2023-03-17T08:41:07.858Z,10.50
2023-03-17T08:43:36.623Z,10.50
2023-03-17T08:46:26.892Z,10.60
2023-03-17T08:48:56.166Z,10.70
2023-03-17T08:51:24.754Z,10.90
2023-03-17T08:53:52.120Z,11.10
2023-03-17T08:56:19.181Z,11.00
2023-03-17T08:58:46.788Z,11.10
2023-03-17T09:01:14.436Z,11.30
2023-03-17T09:03:42.188Z,11.30
2023-03-17T09:06:11.573Z,11.40
2023-03-17T09:08:41.092Z,11.40
2023-03-17T09:11:08.467Z,11.50
2023-03-17T09:13:37.140Z,11.60
2023-03-17T09:16:04.026Z,11.60
2023-03-17T09:18:32.880Z,11.70
2023-03-17T09:21:00.215Z,11.70
2023-03-17T09:23:26.997Z,11.70
2023-03-17T09:25:53.685Z,11.80
2023-03-17T09:28:20.293Z,11.80
2023-03-17T09:30:46.992Z,11.90
2023-03-17T09:33:14.297Z,11.90
2023-03-17T09:35:41.438Z,12.00
2023-03-17T09:38:09.143Z,12.10
2023-03-17T09:40:53.841Z,12.20
2023-03-17T09:43:28.494Z,12.30
2023-03-17T09:45:56.088Z,12.30
2023-03-17T09:48:43.982Z,12.40
2023-03-17T09:51:13.766Z,12.40
2023-03-17T09:54:00.080Z,12.50
2023-03-17T09:56:38.208Z,12.60
2023-03-17T09:59:29.696Z,12.70
2023-03-17T10:01:57.591Z,12.70
2023-03-17T10:04:24.509Z,12.80
2023-03-17T10:06:54.564Z,12.80
2023-03-17T10:09:41.726Z,12.80
2023-03-17T10:12:16.691Z,12.80
2023-03-17T10:14:51.066Z,12.90
2023-03-17T10:17:21.625Z,13.00
2023-03-17T10:19:54.237Z,13.10
2023-03-17T10:22:49.223Z,13.10
2023-03-17T10:25:29.937Z,13.10
2023-03-17T10:28:08.790Z,13.10
2023-03-17T10:30:35.842Z,13.20
2023-03-17T10:33:06.981Z,13.20
2023-03-17T10:35:36.249Z,13.20
2023-03-17T10:38:33.566Z,13.30
2023-03-17T10:41:07.013Z,13.30
2023-03-17T10:43:51.736Z,13.20
2023-03-17T10:46:24.287Z,13.20
2023-03-17T10:49:06.115Z,13.30
2023-03-17T10:51:36.694Z,13.30
2023-03-17T10:54:09.636Z,13.30
2023-03-17T10:56:39.559Z,13.40
2023-03-17T10:59:09.005Z,13.50
2023-03-17T11:01:43.801Z,13.60
2023-03-17T11:04:30.082Z,13.70
2023-03-17T11:06:58.589Z,13.80
2023-03-17T11:09:27.985Z,14.00
2023-03-17T11:12:07.348Z,14.10
2023-03-17T11:14:35.211Z,14.20
2023-03-17T11:17:08.901Z,14.20
2023-03-17T11:19:43.973Z,14.30
2023-03-17T11:22:30.349Z,14.40
2023-03-17T11:25:19.483Z,14.50
2023-03-17T11:28:02.421Z,14.50
2023-03-17T11:30:36.844Z,14.60
2023-03-17T11:33:28.043Z,14.70
2023-03-17T11:36:33.441Z,14.90
2023-03-17T11:39:19.714Z,15.00
2023-03-17T11:42:06.774Z,15.10
2023-03-17T11:44:46.398Z,15.30
2023-03-17T11:47:43.988Z,15.40
2023-03-17T11:50:34.282Z,15.50
2023-03-17T11:53:22.968Z,15.60
2023-03-17T11:55:55.722Z,15.80
2023-03-17T11:58:37.692Z,15.90
2023-03-17T12:01:08.967Z,16.00
2023-03-17T12:03:48.625Z,16.00
2023-03-17T12:06:32.816Z,16.00
2023-03-17T12:09:35.614Z,16.10
2023-03-17T12:12:04.435Z,16.10
2023-03-17T12:14:46.319Z,16.20
2023-03-17T12:17:34.425Z,16.20
2023-03-17T12:20:18.131Z,16.30
2023-03-17T12:22:51.507Z,16.30
2023-03-17T12:25:30.565Z,16.50
2023-03-17T12:28:05.285Z,16.50
2023-03-17T12:30:55.257Z,16.60
2023-03-17T12:33:50.751Z,16.70
2023-03-17T12:36:18.273Z,16.70
2023-03-17T12:38:52.103Z,16.60
2023-03-17T12:41:47.447Z,16.60
2023-03-17T12:44:29.166Z,16.60
2023-03-17T12:47:27.636Z,16.60
2023-03-17T12:49:57.461Z,16.70
2023-03-17T12:52:45.514Z,16.70
2023-03-17T12:55:18.012Z,16.70
2023-03-17T12:58:03.301Z,16.70
2023-03-17T13:00:46.584Z,16.70
2023-03-17T13:03:24.725Z,16.70
2023-03-17T13:05:58.111Z,16.80
2023-03-17T13:08:34.012Z,16.80
2023-03-17T13:11:45.497Z,16.80
2023-03-17T13:14:40.059Z,16.80
2023-03-17T13:17:19.744Z,16.80
2023-03-17T13:20:04.303Z,16.80
2023-03-17T13:22:38.200Z,16.80
2023-03-17T13:25:35.605Z,16.80
2023-03-17T13:28:41.087Z,16.80
2023-03-17T13:31:33.339Z,16.70
2023-03-17T13:34:15.066Z,16.70
2023-03-17T13:37:19.070Z,16.70
2023-03-17T13:40:14.626Z,16.60
2023-03-17T13:42:59.750Z,16.70
2023-03-17T13:45:39.248Z,16.70
2023-03-17T13:48:36.517Z,16.70
2023-03-17T13:51:14.929Z,16.70
2023-03-17T13:53:56.373Z,16.70
2023-03-17T13:56:46.733Z,16.70
2023-03-17T13:59:18.786Z,16.70
2023-03-17T14:01:51.303Z,16.70
2023-03-17T14:04:21.279Z,16.80
2023-03-17T14:06:50.820Z,16.80
2023-03-17T14:09:20.184Z,16.90
2023-03-17T14:11:47.864Z,17.00
2023-03-17T14:14:32.933Z,17.00
2023-03-17T14:17:18.990Z,17.00
2023-03-17T14:20:08.554Z,17.20
2023-03-17T14:22:45.659Z,17.40
2023-03-17T14:25:39.397Z,17.50
2023-03-17T14:28:11.476Z,17.70
2023-03-17T14:30:38.750Z,18.00
2023-03-17T14:33:22.652Z,18.30
2023-03-17T14:35:52.022Z,18.00
2023-03-17T14:38:41.535Z,17.80
2023-03-17T14:41:08.094Z,17.70
2023-03-17T14:43:36.229Z,17.60
2023-03-17T14:46:17.513Z,17.90
2023-03-17T14:48:47.909Z,18.30
2023-03-17T14:51:23.695Z,18.60
2023-03-17T14:53:52.699Z,18.70
2023-03-17T14:56:31.815Z,18.60
2023-03-17T14:59:18.609Z,18.40
2023-03-17T15:01:48.385Z,18.40
2023-03-17T15:04:19.514Z,18.60
2023-03-17T15:06:50.852Z,18.70
2023-03-17T15:09:26.956Z,18.60
2023-03-17T15:12:03.461Z,18.50
2023-03-17T15:14:33.802Z,18.10
2023-03-17T15:17:03.595Z,18.00
2023-03-17T15:19:40.550Z,17.80
2023-03-17T15:22:25.961Z,17.70
2023-03-17T15:25:14.598Z,17.70
2023-03-17T15:27:41.186Z,17.80
2023-03-17T15:30:08.509Z,17.80
2023-03-17T15:32:35.629Z,17.80
2023-03-17T15:35:02.389Z,17.70
2023-03-17T15:37:31.774Z,17.60
2023-03-17T15:39:59.598Z,17.70
2023-03-17T15:42:30.423Z,17.60
2023-03-17T15:44:59.911Z,17.60
2023-03-17T15:47:28.916Z,17.50
2023-03-17T15:50:12.134Z,17.40
2023-03-17T15:52:38.781Z,17.30
2023-03-17T15:55:24.273Z,17.30
2023-03-17T15:57:55.055Z,17.20
2023-03-17T16:00:23.646Z,17.10
2023-03-17T16:02:54.817Z,17.10
2023-03-17T16:05:24.462Z,17.00
2023-03-17T16:07:52.512Z,17.00
2023-03-17T16:10:28.688Z,17.00
2023-03-17T16:12:55.537Z,16.90
2023-03-17T16:15:35.000Z,16.90
2023-03-17T16:18:04.603Z,16.80
2023-03-17T16:20:34.301Z,16.80
2023-03-17T16:23:14.001Z,16.80
2023-03-17T16:25:40.648Z,16.80
2023-03-17T16:28:23.851Z,16.70
2023-03-17T16:30:52.254Z,16.60
2023-03-17T16:33:22.912Z,16.50
2023-03-17T16:35:52.149Z,16.50
2023-03-17T16:38:23.785Z,16.50
2023-03-17T16:40:52.994Z,16.50
2023-03-17T16:43:25.599Z,16.50
2023-03-17T16:45:54.973Z,16.50
2023-03-17T16:48:21.619Z,16.50
2023-03-17T16:50:48.752Z,16.40
2023-03-17T16:53:15.524Z,16.40
2023-03-17T16:55:42.501Z,16.40
2023-03-17T16:58:20.241Z,16.40
2023-03-17T17:00:48.127Z,16.30
2023-03-17T17:03:15.376Z,16.30
2023-03-17T17:05:42.637Z,16.30
2023-03-17T17:08:09.411Z,16.30
2023-03-17T17:10:37.610Z,16.20
2023-03-17T17:13:07.711Z,16.20
2023-03-17T17:15:36.244Z,16.10
2023-03-17T17:18:12.122Z,16.10
2023-03-17T17:20:40.486Z,16.00
2023-03-17T17:23:13.013Z,15.90
2023-03-17T17:25:39.589Z,15.90
2023-03-17T17:28:06.308Z,15.80
2023-03-17T17:30:33.801Z,15.90
2023-03-17T17:33:01.361Z,15.80
2023-03-17T17:35:32.506Z,15.90
2023-03-17T17:38:00.516Z,15.70
2023-03-17T17:40:27.654Z,15.80
2023-03-17T17:42:54.862Z,15.70
2023-03-17T17:45:21.800Z,15.70
2023-03-17T17:47:49.474Z,15.60
2023-03-17T17:50:23.079Z,15.60
2023-03-17T17:52:49.704Z,15.60
2023-03-17T17:55:17.031Z,15.60
2023-03-17T17:57:43.623Z,15.60
2023-03-17T18:00:14.332Z,15.50
2023-03-17T18:02:40.977Z,15.50
2023-03-17T18:05:08.969Z,15.40
2023-03-17T18:07:35.904Z,15.40
2023-03-17T18:10:03.382Z,15.40
2023-03-17T18:12:30.155Z,15.30
2023-03-17T18:14:57.189Z,15.30
2023-03-17T18:17:24.370Z,15.20
2023-03-17T18:19:55.041Z,15.20
2023-03-17T18:22:22.496Z,15.10
2023-03-17T18:24:49.292Z,15.00
2023-03-17T18:27:16.710Z,15.10
2023-03-17T18:29:43.483Z,15.10
2023-03-17T18:32:11.589Z,15.00
2023-03-17T18:34:44.822Z,14.90
2023-03-17T18:37:13.850Z,14.90
2023-03-17T18:39:41.525Z,14.90
2023-03-17T18:42:09.261Z,14.90
2023-03-17T18:44:36.284Z,14.80
2023-03-17T18:47:03.767Z,14.80
2023-03-17T18:49:30.610Z,14.70
2023-03-17T18:51:59.353Z,14.70
2023-03-17T18:54:27.708Z,14.70
2023-03-17T18:56:54.888Z,14.80
2023-03-17T18:59:21.498Z,14.80
2023-03-17T19:01:48.120Z,14.80
2023-03-17T19:04:14.799Z,14.80
2023-03-17T19:06:42.538Z,14.80
2023-03-17T19:09:10.649Z,14.80
2023-03-17T19:11:39.179Z,14.70
2023-03-17T19:14:07.106Z,14.70
2023-03-17T19:16:34.338Z,14.70
2023-03-17T19:19:01.575Z,14.70
2023-03-17T19:21:28.434Z,14.60
2023-03-17T19:23:58.092Z,14.50
2023-03-17T19:26:24.724Z,14.60
2023-03-17T19:28:51.359Z,14.60
2023-03-17T19:31:17.998Z,14.60
2023-03-17T19:33:44.574Z,14.50
2023-03-17T19:36:12.831Z,14.50
2023-03-17T19:38:40.152Z,14.50
2023-03-17T19:41:06.804Z,14.60
2023-03-17T19:43:40.757Z,14.50
2023-03-17T19:46:09.641Z,14.50
2023-03-17T19:48:37.271Z,14.50
2023-03-17T19:51:04.330Z,14.50
2023-03-17T19:53:31.167Z,14.50
2023-03-17T19:55:57.820Z,14.40
2023-03-17T19:58:24.503Z,14.40
2023-03-17T20:00:51.552Z,14.50
2023-03-17T20:03:18.631Z,14.40
2023-03-17T20:05:46.257Z,14.40
2023-03-17T20:08:14.455Z,14.40
2023-03-17T20:10:41.184Z,14.40
2023-03-17T20:13:07.966Z,14.40
2023-03-17T20:15:34.932Z,14.30
2023-03-17T20:18:01.663Z,14.30
2023-03-17T20:20:28.255Z,14.30
2023-03-17T20:22:54.857Z,14.30
2023-03-17T20:25:21.805Z,14.30
2023-03-17T20:27:48.675Z,14.20
2023-03-17T20:30:16.025Z,14.20
2023-03-17T20:32:44.101Z,14.10
2023-03-17T20:35:11.407Z,14.10
2023-03-17T20:37:38.616Z,14.10
2023-03-17T20:40:08.153Z,14.10
2023-03-17T20:42:34.757Z,14.20
2023-03-17T20:45:03.226Z,14.10
2023-03-17T20:47:30.617Z,14.20
2023-03-17T20:49:58.785Z,14.10
2023-03-17T20:52:29.971Z,14.20
2023-03-17T20:54:57.551Z,14.20
2023-03-17T20:57:24.240Z,14.20
2023-03-17T20:59:51.842Z,14.20
2023-03-17T21:02:18.952Z,14.30
2023-03-17T21:04:47.959Z,14.30
2023-03-17T21:07:17.349Z,14.30
2023-03-17T21:09:45.144Z,14.30
2023-03-17T21:12:21.154Z,14.30
2023-03-17T21:14:48.975Z,14.30
2023-03-17T21:17:17.847Z,14.40
2023-03-17T21:19:44.552Z,14.40
2023-03-17T21:22:12.304Z,14.30
2023-03-17T21:24:39.792Z,14.40
2023-03-17T21:27:09.870Z,14.40
2023-03-17T21:29:36.981Z,14.40
2023-03-17T21:32:04.916Z,14.40
2023-03-17T21:34:32.014Z,14.40
2023-03-17T21:36:59.851Z,14.40
2023-03-17T21:39:29.532Z,14.40
2023-03-17T21:41:56.435Z,14.40
2023-03-17T21:44:23.283Z,14.50
2023-03-17T21:46:50.576Z,14.50
2023-03-17T21:49:18.554Z,14.50
2023-03-17T21:51:46.581Z,14.50
2023-03-17T21:54:14.137Z,14.40
2023-03-17T21:56:41.635Z,14.40
2023-03-17T21:59:10.911Z,14.50
2023-03-17T22:01:39.461Z,14.50
2023-03-17T22:04:06.309Z,14.50
2023-03-17T22:06:33.116Z,14.50
2023-03-17T22:08:59.816Z,14.50
2023-03-17T22:11:26.448Z,14.50
2023-03-17T22:13:53.041Z,14.50
2023-03-17T22:16:19.812Z,14.50
2023-03-17T22:18:47.408Z,14.50
2023-03-17T22:21:14.641Z,14.50
2023-03-17T22:23:42.178Z,14.50
2023-03-17T22:26:13.168Z,14.50
2023-03-17T22:28:40.599Z,14.40
2023-03-17T22:31:12.191Z,14.40
2023-03-17T22:33:39.110Z,14.40
2023-03-17T22:36:06.796Z,14.40
2023-03-17T22:38:34.224Z,14.40
2023-03-17T22:41:13.114Z,14.40
2023-03-17T22:43:41.487Z,14.30
2023-03-17T22:46:09.028Z,14.30
2023-03-17T22:48:36.263Z,14.30
2023-03-17T22:51:05.609Z,14.30
2023-03-17T22:53:32.955Z,14.30
2023-03-17T22:56:00.151Z,14.20
2023-03-17T22:58:27.319Z,14.20
2023-03-17T23:00:55.203Z,14.20
2023-03-17T23:03:23.029Z,14.20
2023-03-17T23:05:52.000Z,14.20
2023-03-17T23:08:20.170Z,14.20
2023-03-17T23:10:48.778Z,14.10
2023-03-17T23:13:17.382Z,14.10
2023-03-17T23:15:43.995Z,14.10
2023-03-17T23:18:10.838Z,14.10
2023-03-17T23:20:40.499Z,14.10
2023-03-17T23:23:08.341Z,14.00
2023-03-17T23:25:36.414Z,14.10
2023-03-17T23:28:03.473Z,14.10
2023-03-17T23:30:30.940Z,14.00
2023-03-17T23:32:58.423Z,14.00
2023-03-17T23:35:25.221Z,13.90
2023-03-17T23:37:51.891Z,13.90
2023-03-17T23:40:18.639Z,13.90
2023-03-17T23:42:48.714Z,13.90
2023-03-17T23:45:16.658Z,13.90
2023-03-17T23:47:44.141Z,14.00
2023-03-17T23:50:12.297Z,13.90
2023-03-17T23:52:39.063Z,13.80
2023-03-17T23:55:06.589Z,13.80
2023-03-17T23:57:34.748Z,13.70
